This is the latest recevied weather packets stored in our database for station/object WP3OF-1. If no packets are shown the sender has not sent any weather packets the latest 1 day(s).
| Time | Temp. | Humidity | Pressure | Rain* | Wind** | Luminosity | Snow |
|---|---|---|---|---|---|---|---|
| 1836274844 | 25.56° C | 93% | 1016.7 hPa | 0 mm | 0 m/s | - | - |
| 1836274542 | 25.56° C | 93% | 1016.5 hPa | 0 mm | 0 m/s | - | - |
| 1836274396 | 25.56° C | 93% | 1016.8 hPa | 0 mm | 0 m/s | - | - |
| 1836274241 | 25.56° C | 93% | 1016.6 hPa | 0 mm | 0 m/s | - | - |
| 1836273940 | 25.56° C | 93% | 1016.5 hPa | 0 mm | 0 m/s | - | - |
| 1778031225 | 25.56° C | 87% | 1018.8 hPa | 0 mm | 4.02 m/s, 107° | - | - |
| 1778030920 | 25.56° C | 87% | 1018.8 hPa | 0 mm | 4.47 m/s, 101° | - | - |
| 1778030618 | 25.56° C | 87% | 1018.7 hPa | 0 mm | 4.02 m/s, 91° | - | - |
| 1778030315 | 25.56° C | 87% | 1018.7 hPa | 0 mm | 3.58 m/s, 99° | - | - |
| 1778030011 | 25.56° C | 87% | 1018.8 hPa | 0 mm | 3.58 m/s, 97° | - | - |
| 1778029709 | 25.56° C | 86% | 1018.8 hPa | 0 mm | 3.58 m/s, 101° | - | - |
| 1778029407 | 25° C | 86% | 1018.6 hPa | 0 mm | 2.68 m/s, 89° | - | - |
| 1778029103 | 25° C | 86% | 1018.7 hPa | 0 mm | 2.24 m/s, 100° | - | - |
| 1778028800 | 25.56° C | 86% | 1018.5 hPa | 0 mm | 3.13 m/s, 73° | - | - |
| 1778028496 | 25.56° C | 86% | 1018.4 hPa | 0 mm | 2.68 m/s, 88° | - | - |
| 1778028194 | 25° C | 85% | 1018.4 hPa | 0 mm | 3.58 m/s, 93° | - | - |
| 1778027890 | 25.56° C | 85% | 1018.6 hPa | 0 mm | 2.24 m/s, 96° | - | - |
| 1778027587 | 25.56° C | 85% | 1018.5 hPa | 0 mm | 2.24 m/s, 102° | - | - |
| 1778027282 | 25.56° C | 84% | 1018.3 hPa | 0 mm | 2.68 m/s, 86° | - | - |
| 1778026979 | 25.56° C | 84% | 1018.5 hPa | 0 mm | 3.13 m/s, 108° | - | - |
| 1778026675 | 25.56° C | 84% | 1018.3 hPa | 0 mm | 3.58 m/s, 101° | - | - |
| 1778026372 | 25.56° C | 83% | 1018.4 hPa | 0 mm | 4.02 m/s, 109° | - | - |
| 1778026069 | 25.56° C | 83% | 1018.4 hPa | 0 mm | 3.13 m/s, 102° | - | - |
| 1778025767 | 25.56° C | 83% | 1018.3 hPa | 0 mm | 3.13 m/s, 103° | - | - |
| 1778025464 | 25.56° C | 83% | 1018.4 hPa | 0 mm | 4.02 m/s, 97° | - | - |
* Rain latest hour (hover to see other rain measurements)
** Current wind speed in m/s (hover to see current wind gust speed)